Dupuy, Canada
Current Conditions -  °F | °C
As of 11:00 PM on Wednesday 28 Jan 2015 (Local Time) from CYUY Reporting Station
Broken Clouds Broken Clouds  
Wind Chill:   Ceiling: 10000
Heat Index: 12°   Visibility: 15mi
Dew Point:   Wind: 6mph
Humidity: 73%   Direction: 190°S
Pressure: 30.1"   Gusts: NA
Location:  48.83°N, 79.37°W
Report Text: CYUY 290400Z 19005KT 15SM BKN100 M11/M15 A3010 RMK AC6 SLP221
Loading
Personal Weather Stations






























Interactive Weather Map New forecast layout! Learn more

10-Day Weather Forecast

Advertisements
Track Severe Weather on mobile